sensor_id;sensor_type;location;lat;lon;timestamp;P1;durP1;ratioP1;P2;durP2;ratioP2
18853;SDS011;9556;49.374;19.446;2023-02-01T00:00:14;1.30;;;0.80;;
18853;SDS011;9556;49.374;19.446;2023-02-01T00:02:42;0.82;;;0.80;;
18853;SDS011;9556;49.374;19.446;2023-02-01T00:05:10;1.35;;;0.80;;
18853;SDS011;9556;49.374;19.446;2023-02-01T00:07:37;1.23;;;0.87;;
18853;SDS011;9556;49.374;19.446;2023-02-01T00:10:05;0.90;;;0.80;;
18853;SDS011;9556;49.374;19.446;2023-02-01T00:12:32;2.73;;;0.80;;
18853;SDS011;9556;49.374;19.446;2023-02-01T00:15:00;1.80;;;1.03;;
18853;SDS011;9556;49.374;19.446;2023-02-01T00:17:27;2.10;;;0.80;;
18853;SDS011;9556;49.374;19.446;2023-02-01T00:19:55;0.90;;;0.70;;
18853;SDS011;9556;49.374;19.446;2023-02-01T00:22:22;1.10;;;0.80;;
18853;SDS011;9556;49.374;19.446;2023-02-01T00:24:50;1.60;;;0.80;;
18853;SDS011;9556;49.374;19.446;2023-02-01T00:27:17;0.97;;;0.80;;
18853;SDS011;9556;49.374;19.446;2023-02-01T00:29:46;0.85;;;0.75;;
18853;SDS011;9556;49.374;19.446;2023-02-01T00:32:13;0.70;;;0.70;;
18853;SDS011;9556;49.374;19.446;2023-02-01T00:34:40;1.07;;;0.77;;
18853;SDS011;9556;49.374;19.446;2023-02-01T00:37:09;0.87;;;0.70;;
18853;SDS011;9556;49.374;19.446;2023-02-01T00:39:36;0.73;;;0.70;;
18853;SDS011;9556;49.374;19.446;2023-02-01T00:42:03;0.90;;;0.70;;
18853;SDS011;9556;49.374;19.446;2023-02-01T00:44:30;1.07;;;0.80;;
18853;SDS011;9556;49.374;19.446;2023-02-01T00:46:59;0.93;;;0.73;;
18853;SDS011;9556;49.374;19.446;2023-02-01T00:49:26;1.05;;;0.80;;
18853;SDS011;9556;49.374;19.446;2023-02-01T00:51:53;1.00;;;0.80;;
18853;SDS011;9556;49.374;19.446;2023-02-01T00:54:22;0.80;;;0.70;;
18853;SDS011;9556;49.374;19.446;2023-02-01T00:56:49;1.00;;;0.60;;
18853;SDS011;9556;49.374;19.446;2023-02-01T00:59:16;2.17;;;0.80;;
18853;SDS011;9556;49.374;19.446;2023-02-01T01:01:43;1.67;;;0.80;;
18853;SDS011;9556;49.374;19.446;2023-02-01T01:04:10;1.73;;;0.90;;
18853;SDS011;9556;49.374;19.446;2023-02-01T01:06:40;1.10;;;0.80;;
18853;SDS011;9556;49.374;19.446;2023-02-01T01:09:08;1.08;;;0.75;;
18853;SDS011;9556;49.374;19.446;2023-02-01T01:11:37;0.80;;;0.80;;
18853;SDS011;9556;49.374;19.446;2023-02-01T01:14:05;1.43;;;0.97;;
18853;SDS011;9556;49.374;19.446;2023-02-01T01:16:32;1.33;;;0.90;;
18853;SDS011;9556;49.374;19.446;2023-02-01T01:19:00;1.05;;;0.77;;
18853;SDS011;9556;49.374;19.446;2023-02-01T01:21:27;0.97;;;0.73;;
18853;SDS011;9556;49.374;19.446;2023-02-01T01:23:55;0.73;;;0.70;;
18853;SDS011;9556;49.374;19.446;2023-02-01T01:26:23;1.20;;;0.80;;
18853;SDS011;9556;49.374;19.446;2023-02-01T01:28:54;0.70;;;0.60;;
18853;SDS011;9556;49.374;19.446;2023-02-01T01:31:21;1.20;;;0.70;;
18853;SDS011;9556;49.374;19.446;2023-02-01T01:33:49;3.47;;;0.70;;
18853;SDS011;9556;49.374;19.446;2023-02-01T01:36:16;0.98;;;0.68;;
18853;SDS011;9556;49.374;19.446;2023-02-01T01:38:43;1.00;;;0.70;;
18853;SDS011;9556;49.374;19.446;2023-02-01T01:41:12;1.37;;;0.70;;
18853;SDS011;9556;49.374;19.446;2023-02-01T01:43:46;1.27;;;0.70;;
18853;SDS011;9556;49.374;19.446;2023-02-01T01:46:16;0.80;;;0.60;;
18853;SDS011;9556;49.374;19.446;2023-02-01T01:48:44;0.77;;;0.67;;
18853;SDS011;9556;49.374;19.446;2023-02-01T01:51:11;1.23;;;0.90;;
18853;SDS011;9556;49.374;19.446;2023-02-01T01:53:42;0.73;;;0.70;;
18853;SDS011;9556;49.374;19.446;2023-02-01T01:56:10;1.57;;;0.80;;
18853;SDS011;9556;49.374;19.446;2023-02-01T01:58:37;0.90;;;0.70;;
18853;SDS011;9556;49.374;19.446;2023-02-01T02:01:04;1.17;;;0.70;;
18853;SDS011;9556;49.374;19.446;2023-02-01T02:03:34;0.88;;;0.77;;
18853;SDS011;9556;49.374;19.446;2023-02-01T02:06:02;1.00;;;0.90;;
18853;SDS011;9556;49.374;19.446;2023-02-01T02:08:30;1.20;;;0.80;;
18853;SDS011;9556;49.374;19.446;2023-02-01T02:10:57;0.80;;;0.80;;
18853;SDS011;9556;49.374;19.446;2023-02-01T02:13:28;0.63;;;0.60;;
18853;SDS011;9556;49.374;19.446;2023-02-01T02:16:05;0.73;;;0.60;;
18853;SDS011;9556;49.374;19.446;2023-02-01T02:18:40;1.03;;;0.73;;
18853;SDS011;9556;49.374;19.446;2023-02-01T02:21:11;0.70;;;0.70;;
18853;SDS011;9556;49.374;19.446;2023-02-01T02:26:32;0.70;;;0.70;;
18853;SDS011;9556;49.374;19.446;2023-02-01T02:31:51;0.90;;;0.70;;
18853;SDS011;9556;49.374;19.446;2023-02-01T02:34:24;0.70;;;0.70;;
18853;SDS011;9556;49.374;19.446;2023-02-01T02:36:55;0.67;;;0.50;;
18853;SDS011;9556;49.374;19.446;2023-02-01T02:39:27;0.73;;;0.60;;
18853;SDS011;9556;49.374;19.446;2023-02-01T02:41:58;0.63;;;0.60;;
18853;SDS011;9556;49.374;19.446;2023-02-01T02:44:46;0.77;;;0.60;;
18853;SDS011;9556;49.374;19.446;2023-02-01T02:47:33;0.63;;;0.60;;
18853;SDS011;9556;49.374;19.446;2023-02-01T02:50:07;0.60;;;0.60;;
18853;SDS011;9556;49.374;19.446;2023-02-01T02:52:56;0.80;;;0.63;;
18853;SDS011;9556;49.374;19.446;2023-02-01T02:55:42;0.80;;;0.70;;
18853;SDS011;9556;49.374;19.446;2023-02-01T02:58:09;0.83;;;0.63;;
18853;SDS011;9556;49.374;19.446;2023-02-01T03:00:55;0.73;;;0.60;;
18853;SDS011;9556;49.374;19.446;2023-02-01T03:03:41;0.50;;;0.50;;
18853;SDS011;9556;49.374;19.446;2023-02-01T03:06:28;0.60;;;0.60;;
18853;SDS011;9556;49.374;19.446;2023-02-01T03:08:56;2.50;;;0.50;;
18853;SDS011;9556;49.374;19.446;2023-02-01T03:11:24;0.93;;;0.73;;
18853;SDS011;9556;49.374;19.446;2023-02-01T03:14:13;1.57;;;0.60;;
18853;SDS011;9556;49.374;19.446;2023-02-01T03:16:43;0.70;;;0.50;;
18853;SDS011;9556;49.374;19.446;2023-02-01T03:19:11;0.80;;;0.60;;
18853;SDS011;9556;49.374;19.446;2023-02-01T03:21:43;0.57;;;0.57;;
18853;SDS011;9556;49.374;19.446;2023-02-01T03:24:11;1.00;;;0.60;;
18853;SDS011;9556;49.374;19.446;2023-02-01T03:26:41;0.50;;;0.50;;
18853;SDS011;9556;49.374;19.446;2023-02-01T03:29:10;0.57;;;0.50;;
18853;SDS011;9556;49.374;19.446;2023-02-01T03:31:39;0.68;;;0.60;;
18853;SDS011;9556;49.374;19.446;2023-02-01T03:34:07;0.57;;;0.57;;
18853;SDS011;9556;49.374;19.446;2023-02-01T03:36:35;0.80;;;0.63;;
18853;SDS011;9556;49.374;19.446;2023-02-01T03:39:07;0.40;;;0.40;;
18853;SDS011;9556;49.374;19.446;2023-02-01T03:41:39;0.63;;;0.60;;
18853;SDS011;9556;49.374;19.446;2023-02-01T03:44:09;0.40;;;0.40;;
18853;SDS011;9556;49.374;19.446;2023-02-01T03:46:40;0.70;;;0.68;;
18853;SDS011;9556;49.374;19.446;2023-02-01T03:49:09;0.70;;;0.50;;
18853;SDS011;9556;49.374;19.446;2023-02-01T03:51:36;0.70;;;0.60;;
18853;SDS011;9556;49.374;19.446;2023-02-01T03:54:06;0.70;;;0.60;;
18853;SDS011;9556;49.374;19.446;2023-02-01T03:56:35;0.60;;;0.50;;
18853;SDS011;9556;49.374;19.446;2023-02-01T03:59:03;1.70;;;0.60;;
18853;SDS011;9556;49.374;19.446;2023-02-01T04:01:31;0.63;;;0.50;;
18853;SDS011;9556;49.374;19.446;2023-02-01T04:03:58;0.50;;;0.50;;
18853;SDS011;9556;49.374;19.446;2023-02-01T04:06:25;1.20;;;0.70;;
18853;SDS011;9556;49.374;19.446;2023-02-01T04:08:52;0.60;;;0.50;;
18853;SDS011;9556;49.374;19.446;2023-02-01T04:11:20;0.83;;;0.60;;
18853;SDS011;9556;49.374;19.446;2023-02-01T04:13:48;0.50;;;0.50;;
18853;SDS011;9556;49.374;19.446;2023-02-01T04:16:15;0.50;;;0.50;;
18853;SDS011;9556;49.374;19.446;2023-02-01T04:18:42;0.50;;;0.50;;
18853;SDS011;9556;49.374;19.446;2023-02-01T04:21:09;0.97;;;0.50;;
18853;SDS011;9556;49.374;19.446;2023-02-01T04:23:36;0.60;;;0.47;;
18853;SDS011;9556;49.374;19.446;2023-02-01T04:26:04;1.03;;;0.60;;
18853;SDS011;9556;49.374;19.446;2023-02-01T04:28:33;0.83;;;0.57;;
18853;SDS011;9556;49.374;19.446;2023-02-01T04:31:00;0.60;;;0.60;;
18853;SDS011;9556;49.374;19.446;2023-02-01T04:33:27;0.70;;;0.50;;
18853;SDS011;9556;49.374;19.446;2023-02-01T04:35:55;0.60;;;0.50;;
18853;SDS011;9556;49.374;19.446;2023-02-01T04:38:22;1.33;;;0.70;;
18853;SDS011;9556;49.374;19.446;2023-02-01T04:40:49;0.57;;;0.53;;
18853;SDS011;9556;49.374;19.446;2023-02-01T04:43:16;0.60;;;0.60;;
18853;SDS011;9556;49.374;19.446;2023-02-01T04:45:48;0.50;;;0.50;;
18853;SDS011;9556;49.374;19.446;2023-02-01T04:48:15;0.50;;;0.40;;
18853;SDS011;9556;49.374;19.446;2023-02-01T04:50:43;0.43;;;0.43;;
18853;SDS011;9556;49.374;19.446;2023-02-01T04:53:12;4.87;;;0.80;;
18853;SDS011;9556;49.374;19.446;2023-02-01T04:55:40;1.30;;;0.70;;
18853;SDS011;9556;49.374;19.446;2023-02-01T04:58:07;1.90;;;0.67;;
18853;SDS011;9556;49.374;19.446;2023-02-01T05:00:34;2.90;;;1.00;;
18853;SDS011;9556;49.374;19.446;2023-02-01T05:03:03;3.43;;;1.10;;
18853;SDS011;9556;49.374;19.446;2023-02-01T05:05:30;7.97;;;2.27;;
18853;SDS011;9556;49.374;19.446;2023-02-01T05:07:57;5.67;;;2.00;;
18853;SDS011;9556;49.374;19.446;2023-02-01T05:10:24;3.47;;;1.70;;
18853;SDS011;9556;49.374;19.446;2023-02-01T05:12:52;6.50;;;1.97;;
18853;SDS011;9556;49.374;19.446;2023-02-01T05:15:37;5.53;;;1.50;;
18853;SDS011;9556;49.374;19.446;2023-02-01T05:18:05;6.10;;;1.70;;
18853;SDS011;9556;49.374;19.446;2023-02-01T05:20:32;4.17;;;1.10;;
18853;SDS011;9556;49.374;19.446;2023-02-01T05:23:00;3.73;;;1.20;;
18853;SDS011;9556;49.374;19.446;2023-02-01T05:25:27;3.73;;;1.20;;
18853;SDS011;9556;49.374;19.446;2023-02-01T05:27:54;3.90;;;1.17;;
18853;SDS011;9556;49.374;19.446;2023-02-01T05:30:21;4.13;;;1.00;;
18853;SDS011;9556;49.374;19.446;2023-02-01T05:32:49;3.30;;;1.10;;
18853;SDS011;9556;49.374;19.446;2023-02-01T05:35:18;7.03;;;1.00;;
18853;SDS011;9556;49.374;19.446;2023-02-01T05:37:45;3.77;;;1.20;;
18853;SDS011;9556;49.374;19.446;2023-02-01T05:40:12;1.87;;;0.90;;
18853;SDS011;9556;49.374;19.446;2023-02-01T05:42:39;3.03;;;1.00;;
18853;SDS011;9556;49.374;19.446;2023-02-01T05:45:07;7.43;;;1.10;;
18853;SDS011;9556;49.374;19.446;2023-02-01T05:47:34;2.57;;;0.87;;
18853;SDS011;9556;49.374;19.446;2023-02-01T05:50:02;9.30;;;1.10;;
18853;SDS011;9556;49.374;19.446;2023-02-01T05:52:31;3.50;;;1.30;;
18853;SDS011;9556;49.374;19.446;2023-02-01T05:54:58;2.07;;;0.80;;
18853;SDS011;9556;49.374;19.446;2023-02-01T05:57:25;1.97;;;0.80;;
18853;SDS011;9556;49.374;19.446;2023-02-01T05:59:52;1.90;;;1.07;;
18853;SDS011;9556;49.374;19.446;2023-02-01T06:02:19;2.67;;;0.90;;
18853;SDS011;9556;49.374;19.446;2023-02-01T06:04:46;9.97;;;1.27;;
18853;SDS011;9556;49.374;19.446;2023-02-01T06:07:14;9.23;;;1.40;;
18853;SDS011;9556;49.374;19.446;2023-02-01T06:09:42;3.57;;;1.00;;
18853;SDS011;9556;49.374;19.446;2023-02-01T06:12:09;4.73;;;0.90;;
18853;SDS011;9556;49.374;19.446;2023-02-01T06:14:37;9.10;;;1.77;;
18853;SDS011;9556;49.374;19.446;2023-02-01T06:17:04;17.67;;;1.73;;
18853;SDS011;9556;49.374;19.446;2023-02-01T06:19:31;19.37;;;1.37;;
18853;SDS011;9556;49.374;19.446;2023-02-01T06:21:59;14.30;;;1.30;;
18853;SDS011;9556;49.374;19.446;2023-02-01T06:24:26;7.87;;;1.20;;
18853;SDS011;9556;49.374;19.446;2023-02-01T06:26:54;10.70;;;1.27;;
18853;SDS011;9556;49.374;19.446;2023-02-01T06:29:21;6.93;;;1.30;;
18853;SDS011;9556;49.374;19.446;2023-02-01T06:31:49;4.73;;;1.00;;
18853;SDS011;9556;49.374;19.446;2023-02-01T06:34:16;5.60;;;1.10;;
18853;SDS011;9556;49.374;19.446;2023-02-01T06:36:43;5.90;;;1.00;;
18853;SDS011;9556;49.374;19.446;2023-02-01T06:39:10;4.47;;;0.90;;
18853;SDS011;9556;49.374;19.446;2023-02-01T06:41:40;11.93;;;0.90;;
18853;SDS011;9556;49.374;19.446;2023-02-01T06:44:09;1.97;;;0.90;;
18853;SDS011;9556;49.374;19.446;2023-02-01T06:46:36;4.17;;;1.00;;
18853;SDS011;9556;49.374;19.446;2023-02-01T06:49:03;2.53;;;0.90;;
18853;SDS011;9556;49.374;19.446;2023-02-01T06:51:30;4.50;;;0.93;;
18853;SDS011;9556;49.374;19.446;2023-02-01T06:53:57;2.80;;;1.00;;
18853;SDS011;9556;49.374;19.446;2023-02-01T06:56:25;2.03;;;1.00;;
18853;SDS011;9556;49.374;19.446;2023-02-01T06:58:52;3.53;;;1.17;;
18853;SDS011;9556;49.374;19.446;2023-02-01T07:01:20;3.10;;;0.93;;
18853;SDS011;9556;49.374;19.446;2023-02-01T07:03:48;3.27;;;1.20;;
18853;SDS011;9556;49.374;19.446;2023-02-01T07:06:15;4.43;;;0.97;;
18853;SDS011;9556;49.374;19.446;2023-02-01T07:08:43;2.43;;;1.10;;
18853;SDS011;9556;49.374;19.446;2023-02-01T07:11:11;3.43;;;1.13;;
18853;SDS011;9556;49.374;19.446;2023-02-01T07:13:39;8.53;;;1.40;;
18853;SDS011;9556;49.374;19.446;2023-02-01T07:16:08;3.17;;;1.20;;
18853;SDS011;9556;49.374;19.446;2023-02-01T07:18:38;4.27;;;1.07;;
18853;SDS011;9556;49.374;19.446;2023-02-01T07:21:05;3.37;;;1.10;;
18853;SDS011;9556;49.374;19.446;2023-02-01T07:23:33;5.63;;;1.10;;
18853;SDS011;9556;49.374;19.446;2023-02-01T07:26:01;2.00;;;1.03;;
18853;SDS011;9556;49.374;19.446;2023-02-01T07:28:29;2.30;;;1.10;;
18853;SDS011;9556;49.374;19.446;2023-02-01T07:31:01;3.17;;;1.00;;
18853;SDS011;9556;49.374;19.446;2023-02-01T07:33:28;5.07;;;1.10;;
18853;SDS011;9556;49.374;19.446;2023-02-01T07:35:57;1.83;;;1.00;;
18853;SDS011;9556;49.374;19.446;2023-02-01T07:38:24;2.80;;;0.90;;
18853;SDS011;9556;49.374;19.446;2023-02-01T07:40:51;1.97;;;0.87;;
18853;SDS011;9556;49.374;19.446;2023-02-01T07:43:23;3.20;;;0.97;;
18853;SDS011;9556;49.374;19.446;2023-02-01T07:45:50;2.00;;;1.10;;
18853;SDS011;9556;49.374;19.446;2023-02-01T07:48:18;6.17;;;1.03;;
18853;SDS011;9556;49.374;19.446;2023-02-01T07:50:45;2.85;;;1.20;;
18853;SDS011;9556;49.374;19.446;2023-02-01T07:53:14;2.40;;;1.10;;
18853;SDS011;9556;49.374;19.446;2023-02-01T07:55:41;2.67;;;0.90;;
18853;SDS011;9556;49.374;19.446;2023-02-01T07:58:08;2.63;;;1.00;;
18853;SDS011;9556;49.374;19.446;2023-02-01T08:00:35;2.27;;;1.10;;
18853;SDS011;9556;49.374;19.446;2023-02-01T08:03:20;2.93;;;1.10;;
18853;SDS011;9556;49.374;19.446;2023-02-01T08:05:47;3.73;;;1.00;;
18853;SDS011;9556;49.374;19.446;2023-02-01T08:08:16;2.67;;;0.93;;
18853;SDS011;9556;49.374;19.446;2023-02-01T08:10:43;2.97;;;1.00;;
18853;SDS011;9556;49.374;19.446;2023-02-01T08:13:10;2.33;;;0.90;;
18853;SDS011;9556;49.374;19.446;2023-02-01T08:15:37;1.90;;;1.00;;
18853;SDS011;9556;49.374;19.446;2023-02-01T08:18:04;1.13;;;0.80;;
18853;SDS011;9556;49.374;19.446;2023-02-01T08:20:31;1.35;;;0.77;;
18853;SDS011;9556;49.374;19.446;2023-02-01T08:23:00;2.43;;;0.80;;
18853;SDS011;9556;49.374;19.446;2023-02-01T08:25:29;3.03;;;1.20;;
18853;SDS011;9556;49.374;19.446;2023-02-01T08:27:56;2.17;;;0.80;;
18853;SDS011;9556;49.374;19.446;2023-02-01T08:30:24;1.47;;;0.90;;
18853;SDS011;9556;49.374;19.446;2023-02-01T08:32:52;1.45;;;0.95;;
18853;SDS011;9556;49.374;19.446;2023-02-01T08:35:19;2.70;;;1.00;;
18853;SDS011;9556;49.374;19.446;2023-02-01T08:37:46;2.13;;;1.05;;
18853;SDS011;9556;49.374;19.446;2023-02-01T08:40:14;3.03;;;1.38;;
18853;SDS011;9556;49.374;19.446;2023-02-01T08:42:42;1.08;;;0.82;;
18853;SDS011;9556;49.374;19.446;2023-02-01T08:45:19;3.30;;;0.93;;
18853;SDS011;9556;49.374;19.446;2023-02-01T08:47:48;2.92;;;0.80;;
18853;SDS011;9556;49.374;19.446;2023-02-01T08:50:16;1.15;;;0.80;;
18853;SDS011;9556;49.374;19.446;2023-02-01T08:52:43;4.20;;;1.10;;
18853;SDS011;9556;49.374;19.446;2023-02-01T08:55:11;2.45;;;0.77;;
18853;SDS011;9556;49.374;19.446;2023-02-01T08:57:38;1.20;;;0.80;;
18853;SDS011;9556;49.374;19.446;2023-02-01T09:00:08;2.55;;;1.10;;
18853;SDS011;9556;49.374;19.446;2023-02-01T09:02:37;2.42;;;0.98;;
18853;SDS011;9556;49.374;19.446;2023-02-01T09:05:04;1.67;;;1.05;;
18853;SDS011;9556;49.374;19.446;2023-02-01T09:07:32;11.27;;;1.02;;
18853;SDS011;9556;49.374;19.446;2023-02-01T09:09:59;5.33;;;1.00;;
18853;SDS011;9556;49.374;19.446;2023-02-01T09:12:27;1.65;;;0.80;;
18853;SDS011;9556;49.374;19.446;2023-02-01T09:14:54;1.40;;;0.90;;
18853;SDS011;9556;49.374;19.446;2023-02-01T09:17:22;2.38;;;1.10;;
18853;SDS011;9556;49.374;19.446;2023-02-01T09:19:50;1.33;;;0.90;;
18853;SDS011;9556;49.374;19.446;2023-02-01T09:22:17;2.13;;;1.00;;
18853;SDS011;9556;49.374;19.446;2023-02-01T09:24:44;1.30;;;0.80;;
18853;SDS011;9556;49.374;19.446;2023-02-01T09:27:11;3.43;;;0.87;;
18853;SDS011;9556;49.374;19.446;2023-02-01T09:29:38;2.15;;;1.10;;
18853;SDS011;9556;49.374;19.446;2023-02-01T09:32:05;2.50;;;1.00;;
18853;SDS011;9556;49.374;19.446;2023-02-01T09:34:34;3.17;;;1.00;;
18853;SDS011;9556;49.374;19.446;2023-02-01T09:37:01;1.80;;;1.10;;
18853;SDS011;9556;49.374;19.446;2023-02-01T09:39:29;1.15;;;0.82;;
18853;SDS011;9556;49.374;19.446;2023-02-01T09:41:58;1.20;;;0.80;;
18853;SDS011;9556;49.374;19.446;2023-02-01T09:44:30;1.50;;;0.93;;
18853;SDS011;9556;49.374;19.446;2023-02-01T09:47:01;2.75;;;1.05;;
18853;SDS011;9556;49.374;19.446;2023-02-01T09:49:29;1.70;;;0.70;;
18853;SDS011;9556;49.374;19.446;2023-02-01T09:51:59;2.23;;;0.90;;
18853;SDS011;9556;49.374;19.446;2023-02-01T09:54:28;1.30;;;0.80;;
18853;SDS011;9556;49.374;19.446;2023-02-01T09:56:58;1.80;;;1.00;;
18853;SDS011;9556;49.374;19.446;2023-02-01T09:59:29;1.27;;;1.00;;
18853;SDS011;9556;49.374;19.446;2023-02-01T10:01:58;2.25;;;1.00;;
18853;SDS011;9556;49.374;19.446;2023-02-01T10:04:26;1.67;;;1.00;;
18853;SDS011;9556;49.374;19.446;2023-02-01T10:07:04;1.13;;;0.93;;
18853;SDS011;9556;49.374;19.446;2023-02-01T10:09:41;3.63;;;0.90;;
18853;SDS011;9556;49.374;19.446;2023-02-01T10:12:16;4.72;;;1.73;;
18853;SDS011;9556;49.374;19.446;2023-02-01T10:14:52;3.80;;;2.13;;
18853;SDS011;9556;49.374;19.446;2023-02-01T10:17:23;3.92;;;2.60;;
18853;SDS011;9556;49.374;19.446;2023-02-01T10:19:55;4.30;;;2.72;;
18853;SDS011;9556;49.374;19.446;2023-02-01T10:22:29;4.00;;;2.80;;
18853;SDS011;9556;49.374;19.446;2023-02-01T10:24:58;5.57;;;3.25;;
18853;SDS011;9556;49.374;19.446;2023-02-01T10:27:33;5.50;;;3.60;;
18853;SDS011;9556;49.374;19.446;2023-02-01T10:30:06;4.78;;;3.28;;
18853;SDS011;9556;49.374;19.446;2023-02-01T10:32:41;6.35;;;3.17;;
18853;SDS011;9556;49.374;19.446;2023-02-01T10:35:10;3.97;;;3.03;;
18853;SDS011;9556;49.374;19.446;2023-02-01T10:37:40;5.40;;;3.17;;
18853;SDS011;9556;49.374;19.446;2023-02-01T10:40:12;4.77;;;3.47;;
18853;SDS011;9556;49.374;19.446;2023-02-01T10:42:45;5.17;;;3.00;;
18853;SDS011;9556;49.374;19.446;2023-02-01T10:45:13;4.30;;;2.63;;
18853;SDS011;9556;49.374;19.446;2023-02-01T10:47:41;4.40;;;2.97;;
18853;SDS011;9556;49.374;19.446;2023-02-01T10:50:13;4.37;;;3.10;;
18853;SDS011;9556;49.374;19.446;2023-02-01T10:52:45;5.63;;;3.00;;
18853;SDS011;9556;49.374;19.446;2023-02-01T10:55:27;3.90;;;2.70;;
18853;SDS011;9556;49.374;19.446;2023-02-01T10:57:57;6.13;;;3.20;;
18853;SDS011;9556;49.374;19.446;2023-02-01T11:00:25;4.57;;;2.80;;
18853;SDS011;9556;49.374;19.446;2023-02-01T11:02:52;4.90;;;3.00;;
18853;SDS011;9556;49.374;19.446;2023-02-01T11:05:19;3.60;;;2.83;;
18853;SDS011;9556;49.374;19.446;2023-02-01T11:07:50;3.85;;;2.60;;
18853;SDS011;9556;49.374;19.446;2023-02-01T11:10:36;4.20;;;2.85;;
18853;SDS011;9556;49.374;19.446;2023-02-01T11:13:03;5.07;;;2.90;;
18853;SDS011;9556;49.374;19.446;2023-02-01T11:15:31;6.07;;;2.70;;
18853;SDS011;9556;49.374;19.446;2023-02-01T11:18:07;3.93;;;2.47;;
18853;SDS011;9556;49.374;19.446;2023-02-01T11:20:40;4.00;;;2.40;;
18853;SDS011;9556;49.374;19.446;2023-02-01T11:23:13;4.50;;;2.47;;
18853;SDS011;9556;49.374;19.446;2023-02-01T11:25:47;5.43;;;2.55;;
18853;SDS011;9556;49.374;19.446;2023-02-01T11:28:15;7.10;;;2.72;;
18853;SDS011;9556;49.374;19.446;2023-02-01T11:30:43;4.47;;;2.80;;
18853;SDS011;9556;49.374;19.446;2023-02-01T11:33:12;3.70;;;2.53;;
18853;SDS011;9556;49.374;19.446;2023-02-01T11:35:40;4.13;;;2.30;;
18853;SDS011;9556;49.374;19.446;2023-02-01T11:38:13;4.37;;;2.43;;
18853;SDS011;9556;49.374;19.446;2023-02-01T11:40:43;3.75;;;2.40;;
18853;SDS011;9556;49.374;19.446;2023-02-01T11:43:13;4.07;;;2.40;;
18853;SDS011;9556;49.374;19.446;2023-02-01T11:45:42;3.35;;;2.40;;
18853;SDS011;9556;49.374;19.446;2023-02-01T11:48:19;3.47;;;2.30;;
18853;SDS011;9556;49.374;19.446;2023-02-01T11:50:49;3.27;;;2.20;;
18853;SDS011;9556;49.374;19.446;2023-02-01T11:53:29;3.20;;;2.40;;
18853;SDS011;9556;49.374;19.446;2023-02-01T11:56:02;3.00;;;2.10;;
18853;SDS011;9556;49.374;19.446;2023-02-01T12:01:24;3.00;;;2.03;;
18853;SDS011;9556;49.374;19.446;2023-02-01T12:06:46;2.80;;;2.10;;
18853;SDS011;9556;49.374;19.446;2023-02-01T12:09:24;2.40;;;1.90;;
18853;SDS011;9556;49.374;19.446;2023-02-01T12:11:56;2.80;;;2.05;;
18853;SDS011;9556;49.374;19.446;2023-02-01T12:14:40;2.22;;;1.80;;
18853;SDS011;9556;49.374;19.446;2023-02-01T12:17:18;4.00;;;2.17;;
18853;SDS011;9556;49.374;19.446;2023-02-01T12:19:57;3.30;;;2.00;;
18853;SDS011;9556;49.374;19.446;2023-02-01T12:22:31;2.28;;;1.88;;
18853;SDS011;9556;49.374;19.446;2023-02-01T12:25:09;2.67;;;2.15;;
18853;SDS011;9556;49.374;19.446;2023-02-01T12:27:43;2.90;;;1.85;;
18853;SDS011;9556;49.374;19.446;2023-02-01T12:30:17;2.43;;;1.90;;
18853;SDS011;9556;49.374;19.446;2023-02-01T12:32:51;2.70;;;2.03;;
18853;SDS011;9556;49.374;19.446;2023-02-01T12:35:33;2.17;;;1.70;;
18853;SDS011;9556;49.374;19.446;2023-02-01T12:38:10;2.17;;;1.90;;
18853;SDS011;9556;49.374;19.446;2023-02-01T12:40:43;2.30;;;1.80;;
18853;SDS011;9556;49.374;19.446;2023-02-01T12:43:13;3.77;;;2.20;;
18853;SDS011;9556;49.374;19.446;2023-02-01T12:45:47;3.00;;;2.33;;
18853;SDS011;9556;49.374;19.446;2023-02-01T12:48:22;3.53;;;2.43;;
18853;SDS011;9556;49.374;19.446;2023-02-01T12:50:50;3.92;;;2.78;;
18853;SDS011;9556;49.374;19.446;2023-02-01T12:53:19;5.47;;;3.13;;
18853;SDS011;9556;49.374;19.446;2023-02-01T12:55:50;4.45;;;3.28;;
18853;SDS011;9556;49.374;19.446;2023-02-01T12:58:20;3.00;;;1.90;;
18853;SDS011;9556;49.374;19.446;2023-02-01T13:00:50;5.22;;;1.90;;
18853;SDS011;9556;49.374;19.446;2023-02-01T13:03:21;7.00;;;2.30;;
18853;SDS011;9556;49.374;19.446;2023-02-01T13:05:53;6.85;;;2.25;;
18853;SDS011;9556;49.374;19.446;2023-02-01T13:08:24;8.00;;;2.60;;
18853;SDS011;9556;49.374;19.446;2023-02-01T13:10:54;8.27;;;2.77;;
18853;SDS011;9556;49.374;19.446;2023-02-01T13:13:25;3.57;;;2.63;;
18853;SDS011;9556;49.374;19.446;2023-02-01T13:15:55;5.40;;;2.50;;
18853;SDS011;9556;49.374;19.446;2023-02-01T13:18:24;4.67;;;2.50;;
18853;SDS011;9556;49.374;19.446;2023-02-01T13:20:54;4.78;;;2.35;;
18853;SDS011;9556;49.374;19.446;2023-02-01T13:23:24;4.65;;;2.78;;
18853;SDS011;9556;49.374;19.446;2023-02-01T13:25:53;4.10;;;2.78;;
18853;SDS011;9556;49.374;19.446;2023-02-01T13:28:24;4.20;;;2.42;;
18853;SDS011;9556;49.374;19.446;2023-02-01T13:30:56;3.60;;;2.67;;
18853;SDS011;9556;49.374;19.446;2023-02-01T13:33:38;4.90;;;2.60;;
18853;SDS011;9556;49.374;19.446;2023-02-01T13:36:22;4.35;;;2.47;;
18853;SDS011;9556;49.374;19.446;2023-02-01T13:41:49;4.75;;;2.33;;
18853;SDS011;9556;49.374;19.446;2023-02-01T13:44:19;5.53;;;3.00;;
18853;SDS011;9556;49.374;19.446;2023-02-01T13:46:48;7.47;;;2.30;;
18853;SDS011;9556;49.374;19.446;2023-02-01T13:49:18;7.37;;;2.37;;
18853;SDS011;9556;49.374;19.446;2023-02-01T13:51:48;12.73;;;2.35;;
18853;SDS011;9556;49.374;19.446;2023-02-01T13:54:26;5.13;;;2.75;;
18853;SDS011;9556;49.374;19.446;2023-02-01T13:56:55;12.77;;;5.45;;
18853;SDS011;9556;49.374;19.446;2023-02-01T14:04:55;21.67;;;5.43;;
18853;SDS011;9556;49.374;19.446;2023-02-01T14:07:22;24.10;;;6.03;;
18853;SDS011;9556;49.374;19.446;2023-02-01T14:09:49;18.10;;;5.90;;
18853;SDS011;9556;49.374;19.446;2023-02-01T14:15:20;16.48;;;5.57;;
18853;SDS011;9556;49.374;19.446;2023-02-01T14:17:48;15.13;;;5.53;;
18853;SDS011;9556;49.374;19.446;2023-02-01T14:23:17;16.80;;;5.07;;
18853;SDS011;9556;49.374;19.446;2023-02-01T14:25:46;15.93;;;4.80;;
18853;SDS011;9556;49.374;19.446;2023-02-01T14:28:21;14.95;;;4.88;;
18853;SDS011;9556;49.374;19.446;2023-02-01T14:30:51;13.83;;;4.60;;
18853;SDS011;9556;49.374;19.446;2023-02-01T14:33:21;10.98;;;4.07;;
18853;SDS011;9556;49.374;19.446;2023-02-01T14:36:02;12.80;;;4.93;;
18853;SDS011;9556;49.374;19.446;2023-02-01T14:38:30;15.57;;;4.40;;
18853;SDS011;9556;49.374;19.446;2023-02-01T14:41:10;13.52;;;4.25;;
18853;SDS011;9556;49.374;19.446;2023-02-01T14:43:49;9.50;;;4.38;;
18853;SDS011;9556;49.374;19.446;2023-02-01T14:46:18;13.17;;;4.27;;
18853;SDS011;9556;49.374;19.446;2023-02-01T14:48:45;8.37;;;3.50;;
18853;SDS011;9556;49.374;19.446;2023-02-01T14:51:14;10.40;;;3.97;;
18853;SDS011;9556;49.374;19.446;2023-02-01T14:53:42;10.73;;;4.05;;
18853;SDS011;9556;49.374;19.446;2023-02-01T14:56:12;12.35;;;3.72;;
18853;SDS011;9556;49.374;19.446;2023-02-01T14:58:40;8.80;;;3.47;;
18853;SDS011;9556;49.374;19.446;2023-02-01T15:01:20;10.77;;;4.22;;
18853;SDS011;9556;49.374;19.446;2023-02-01T15:03:49;8.95;;;3.90;;
18853;SDS011;9556;49.374;19.446;2023-02-01T15:06:24;9.68;;;3.72;;
18853;SDS011;9556;49.374;19.446;2023-02-01T15:08:52;7.15;;;3.70;;
18853;SDS011;9556;49.374;19.446;2023-02-01T15:11:20;8.13;;;3.73;;
18853;SDS011;9556;49.374;19.446;2023-02-01T15:13:48;7.00;;;3.37;;
18853;SDS011;9556;49.374;19.446;2023-02-01T15:16:20;7.80;;;3.42;;
18853;SDS011;9556;49.374;19.446;2023-02-01T15:18:48;10.98;;;4.13;;
18853;SDS011;9556;49.374;19.446;2023-02-01T15:21:16;8.52;;;3.65;;
18853;SDS011;9556;49.374;19.446;2023-02-01T15:23:43;7.80;;;3.08;;
18853;SDS011;9556;49.374;19.446;2023-02-01T15:26:23;9.35;;;3.25;;